sensor_id;sensor_type;location;lat;lon;timestamp;pressure;altitude;pressure_sealevel;temperature;humidity
45937;BME280;31649;46.510;6.498;2023-03-31T05:09:00;94613.41;;;5.76;77.16
45937;BME280;31649;46.510;6.498;2023-03-31T05:11:26;94594.59;;;5.84;76.63
45937;BME280;31649;46.510;6.498;2023-03-31T05:13:53;94590.31;;;5.92;75.81
45937;BME280;31649;46.510;6.498;2023-03-31T05:16:19;94584.38;;;6.00;75.42
45937;BME280;31649;46.510;6.498;2023-03-31T05:18:45;94570.22;;;6.04;75.14
45937;BME280;31649;46.510;6.498;2023-03-31T05:21:17;94579.16;;;6.10;74.85
45937;BME280;31649;46.510;6.498;2023-03-31T05:23:44;94570.28;;;6.13;74.97
45937;BME280;31649;46.510;6.498;2023-03-31T05:26:10;94562.41;;;6.14;74.52
45937;BME280;31649;46.510;6.498;2023-03-31T05:28:37;94560.63;;;6.15;74.60
45937;BME280;31649;46.510;6.498;2023-03-31T05:31:04;94550.00;;;6.18;74.45
45937;BME280;31649;46.510;6.498;2023-03-31T05:33:30;94557.75;;;6.18;74.31
45937;BME280;31649;46.510;6.498;2023-03-31T05:35:56;94544.84;;;6.18;74.24
45937;BME280;31649;46.510;6.498;2023-03-31T05:38:25;94542.75;;;6.22;74.26
45937;BME280;31649;46.510;6.498;2023-03-31T05:40:54;94544.19;;;6.16;74.35
45937;BME280;31649;46.510;6.498;2023-03-31T05:43:20;94531.97;;;6.00;76.00
45937;BME280;31649;46.510;6.498;2023-03-31T05:45:45;94526.44;;;5.95;76.35
45937;BME280;31649;46.510;6.498;2023-03-31T05:48:11;94530.44;;;5.89;77.30
45937;BME280;31649;46.510;6.498;2023-03-31T05:50:37;94526.38;;;5.86;77.80
45937;BME280;31649;46.510;6.498;2023-03-31T05:53:02;94522.19;;;5.85;78.30
45937;BME280;31649;46.510;6.498;2023-03-31T05:55:28;94525.56;;;5.86;78.80
45937;BME280;31649;46.510;6.498;2023-03-31T05:57:55;94522.03;;;5.87;78.73
45937;BME280;31649;46.510;6.498;2023-03-31T06:00:21;94516.22;;;5.85;79.09
45937;BME280;31649;46.510;6.498;2023-03-31T06:02:47;94512.53;;;5.87;79.01
45937;BME280;31649;46.510;6.498;2023-03-31T06:05:13;94514.78;;;5.90;79.29
45937;BME280;31649;46.510;6.498;2023-03-31T06:07:38;94521.59;;;5.91;79.26
45937;BME280;31649;46.510;6.498;2023-03-31T06:10:05;94522.38;;;5.92;79.67
45937;BME280;31649;46.510;6.498;2023-03-31T06:12:32;94518.41;;;5.98;79.70
45937;BME280;31649;46.510;6.498;2023-03-31T06:14:58;94512.63;;;6.04;79.74
45937;BME280;31649;46.510;6.498;2023-03-31T06:17:24;94515.72;;;6.08;79.69
45937;BME280;31649;46.510;6.498;2023-03-31T06:19:49;94505.91;;;6.11;79.93
45937;BME280;31649;46.510;6.498;2023-03-31T06:22:15;94506.25;;;6.17;79.38
45937;BME280;31649;46.510;6.498;2023-03-31T06:24:41;94500.78;;;6.20;79.76
45937;BME280;31649;46.510;6.498;2023-03-31T06:27:07;94494.50;;;6.22;79.67
45937;BME280;31649;46.510;6.498;2023-03-31T06:29:33;94495.31;;;6.23;78.61
45937;BME280;31649;46.510;6.498;2023-03-31T06:31:59;94481.13;;;6.27;77.53
45937;BME280;31649;46.510;6.498;2023-03-31T06:34:25;94485.47;;;6.26;78.07
45937;BME280;31649;46.510;6.498;2023-03-31T06:36:51;94490.16;;;6.23;78.52
45937;BME280;31649;46.510;6.498;2023-03-31T06:39:18;94484.00;;;6.24;78.94
45937;BME280;31649;46.510;6.498;2023-03-31T06:41:43;94484.00;;;6.24;78.59
45937;BME280;31649;46.510;6.498;2023-03-31T06:44:09;94480.31;;;6.26;78.62
45937;BME280;31649;46.510;6.498;2023-03-31T06:46:35;94487.75;;;6.30;79.00
45937;BME280;31649;46.510;6.498;2023-03-31T06:49:01;94483.75;;;6.35;79.70
45937;BME280;31649;46.510;6.498;2023-03-31T06:51:26;94476.00;;;6.35;80.20
45937;BME280;31649;46.510;6.498;2023-03-31T06:53:52;94474.69;;;6.31;80.66
45937;BME280;31649;46.510;6.498;2023-03-31T06:56:18;94478.06;;;6.32;80.98
45937;BME280;31649;46.510;6.498;2023-03-31T06:58:44;94476.00;;;6.35;81.07
45937;BME280;31649;46.510;6.498;2023-03-31T07:01:09;94482.59;;;6.38;80.88
45937;BME280;31649;46.510;6.498;2023-03-31T07:03:36;94484.06;;;6.41;81.00
45937;BME280;31649;46.510;6.498;2023-03-31T07:06:01;94488.28;;;6.42;81.15
45937;BME280;31649;46.510;6.498;2023-03-31T07:08:27;94485.38;;;6.45;80.92
45937;BME280;31649;46.510;6.498;2023-03-31T07:10:55;94483.78;;;6.44;81.44
45937;BME280;31649;46.510;6.498;2023-03-31T07:13:22;94477.16;;;6.41;81.99
45937;BME280;31649;46.510;6.498;2023-03-31T07:15:48;94472.28;;;6.38;82.06
45937;BME280;31649;46.510;6.498;2023-03-31T07:18:15;94475.50;;;6.40;82.23
45937;BME280;31649;46.510;6.498;2023-03-31T07:20:41;94466.00;;;6.41;82.34
45937;BME280;31649;46.510;6.498;2023-03-31T07:23:08;94459.06;;;6.41;81.91
45937;BME280;31649;46.510;6.498;2023-03-31T07:25:34;94457.28;;;6.42;82.31
45937;BME280;31649;46.510;6.498;2023-03-31T07:28:02;94457.28;;;6.42;82.32
45937;BME280;31649;46.510;6.498;2023-03-31T07:30:27;94448.56;;;6.43;82.28
45937;BME280;31649;46.510;6.498;2023-03-31T07:32:54;94448.41;;;6.44;82.53
45937;BME280;31649;46.510;6.498;2023-03-31T07:35:20;94441.47;;;6.45;82.90
45937;BME280;31649;46.510;6.498;2023-03-31T07:37:48;94444.03;;;6.45;82.59
45937;BME280;31649;46.510;6.498;2023-03-31T07:40:27;94441.94;;;6.48;82.98
45937;BME280;31649;46.510;6.498;2023-03-31T07:42:53;94439.22;;;6.50;82.76
45937;BME280;31649;46.510;6.498;2023-03-31T07:45:21;94435.38;;;6.54;83.23
45937;BME280;31649;46.510;6.498;2023-03-31T07:47:47;94432.28;;;6.59;83.10
45937;BME280;31649;46.510;6.498;2023-03-31T07:50:15;94420.00;;;6.61;83.68
45937;BME280;31649;46.510;6.498;2023-03-31T07:52:41;94413.72;;;6.64;83.46
45937;BME280;31649;46.510;6.498;2023-03-31T07:55:07;94413.44;;;6.67;83.45
45937;BME280;31649;46.510;6.498;2023-03-31T07:57:33;94406.97;;;6.71;83.78
45937;BME280;31649;46.510;6.498;2023-03-31T07:59:59;94403.41;;;6.80;83.70
45937;BME280;31649;46.510;6.498;2023-03-31T08:02:24;94398.91;;;6.91;83.94
45937;BME280;31649;46.510;6.498;2023-03-31T08:04:50;94398.72;;;7.01;83.68
45937;BME280;31649;46.510;6.498;2023-03-31T08:07:16;94395.66;;;7.05;83.74
45937;BME280;31649;46.510;6.498;2023-03-31T08:09:44;94392.13;;;7.15;83.60
45937;BME280;31649;46.510;6.498;2023-03-31T08:12:10;94396.00;;;7.19;83.29
45937;BME280;31649;46.510;6.498;2023-03-31T08:14:36;94382.25;;;7.27;83.42
45937;BME280;31649;46.510;6.498;2023-03-31T08:17:01;94385.00;;;7.34;83.37
45937;BME280;31649;46.510;6.498;2023-03-31T08:19:28;94379.47;;;7.37;83.51
45937;BME280;31649;46.510;6.498;2023-03-31T08:21:54;94379.00;;;7.41;82.87
45937;BME280;31649;46.510;6.498;2023-03-31T08:24:20;94378.31;;;7.48;83.03
45937;BME280;31649;46.510;6.498;2023-03-31T08:26:46;94376.38;;;7.50;82.91
45937;BME280;31649;46.510;6.498;2023-03-31T08:29:11;94384.31;;;7.57;82.92
45937;BME280;31649;46.510;6.498;2023-03-31T08:31:37;94387.81;;;7.64;83.02
45937;BME280;31649;46.510;6.498;2023-03-31T08:34:03;94392.69;;;7.67;83.23
45937;BME280;31649;46.510;6.498;2023-03-31T08:36:30;94387.63;;;7.74;83.25
45937;BME280;31649;46.510;6.498;2023-03-31T08:38:55;94383.88;;;7.85;82.91
45937;BME280;31649;46.510;6.498;2023-03-31T08:41:57;94376.44;;;7.90;82.83
45937;BME280;31649;46.510;6.498;2023-03-31T08:46:58;94373.81;;;7.98;83.02
45937;BME280;31649;46.510;6.498;2023-03-31T08:49:25;94364.88;;;8.01;83.12
45937;BME280;31649;46.510;6.498;2023-03-31T08:52:00;94362.13;;;8.03;82.95
45937;BME280;31649;46.510;6.498;2023-03-31T08:54:33;94364.38;;;8.06;83.07
45937;BME280;31649;46.510;6.498;2023-03-31T08:57:05;94350.09;;;8.10;82.76
45937;BME280;31649;46.510;6.498;2023-03-31T08:59:36;94337.66;;;8.05;82.67
45937;BME280;31649;46.510;6.498;2023-03-31T09:05:04;94321.28;;;8.13;82.37
45937;BME280;31649;46.510;6.498;2023-03-31T09:15:39;94315.97;;;8.38;81.31
45937;BME280;31649;46.510;6.498;2023-03-31T09:18:34;94315.97;;;8.38;81.03
45937;BME280;31649;46.510;6.498;2023-03-31T09:26:40;94303.38;;;8.27;81.25
45937;BME280;31649;46.510;6.498;2023-03-31T09:29:16;94300.56;;;8.13;81.77
45937;BME280;31649;46.510;6.498;2023-03-31T09:31:44;94298.53;;;8.00;82.32
45937;BME280;31649;46.510;6.498;2023-03-31T09:34:16;94322.66;;;8.00;82.20
45937;BME280;31649;46.510;6.498;2023-03-31T09:36:43;94313.25;;;7.99;82.06
45937;BME280;31649;46.510;6.498;2023-03-31T09:39:13;94326.81;;;8.10;81.23
45937;BME280;31649;46.510;6.498;2023-03-31T09:41:44;94325.53;;;8.06;81.64
45937;BME280;31649;46.510;6.498;2023-03-31T09:46:49;94319.25;;;8.00;81.99
45937;BME280;31649;46.510;6.498;2023-03-31T09:49:22;94321.16;;;8.06;81.98
45937;BME280;31649;46.510;6.498;2023-03-31T09:54:53;94309.09;;;8.22;82.92
45937;BME280;31649;46.510;6.498;2023-03-31T09:57:27;94311.53;;;8.23;82.91
45937;BME280;31649;46.510;6.498;2023-03-31T10:00:01;94300.41;;;8.15;83.87
45937;BME280;31649;46.510;6.498;2023-03-31T10:04:58;94288.94;;;8.09;84.52
45937;BME280;31649;46.510;6.498;2023-03-31T10:07:24;94283.28;;;8.05;85.41
45937;BME280;31649;46.510;6.498;2023-03-31T10:09:51;94283.00;;;8.00;85.83
45937;BME280;31649;46.510;6.498;2023-03-31T10:12:21;94280.59;;;7.98;86.32
45937;BME280;31649;46.510;6.498;2023-03-31T10:14:50;94275.41;;;7.98;86.54
45937;BME280;31649;46.510;6.498;2023-03-31T10:17:18;94274.91;;;7.95;86.47
45937;BME280;31649;46.510;6.498;2023-03-31T10:20:16;94264.91;;;7.92;86.90
45937;BME280;31649;46.510;6.498;2023-03-31T10:22:43;94262.59;;;7.97;86.94
45937;BME280;31649;46.510;6.498;2023-03-31T10:25:15;94261.81;;;7.96;87.16
45937;BME280;31649;46.510;6.498;2023-03-31T10:27:44;94252.09;;;7.98;87.37
45937;BME280;31649;46.510;6.498;2023-03-31T10:30:18;94247.38;;;8.02;87.39
45937;BME280;31649;46.510;6.498;2023-03-31T10:32:45;94244.72;;;8.10;87.31
45937;BME280;31649;46.510;6.498;2023-03-31T10:37:48;94232.19;;;8.22;87.47
45937;BME280;31649;46.510;6.498;2023-03-31T10:40:26;94225.66;;;8.27;87.54
45937;BME280;31649;46.510;6.498;2023-03-31T10:45:37;94202.47;;;8.33;87.57
45937;BME280;31649;46.510;6.498;2023-03-31T10:50:44;94194.00;;;8.40;87.38
45937;BME280;31649;46.510;6.498;2023-03-31T10:53:12;94201.25;;;8.44;87.17
45937;BME280;31649;46.510;6.498;2023-03-31T10:55:50;94200.56;;;8.51;86.97
45937;BME280;31649;46.510;6.498;2023-03-31T11:01:21;94231.69;;;8.66;86.33
45937;BME280;31649;46.510;6.498;2023-03-31T11:12:20;94228.06;;;8.75;86.17
45937;BME280;31649;46.510;6.498;2023-03-31T11:14:53;94205.78;;;8.81;86.01
45937;BME280;31649;46.510;6.498;2023-03-31T11:17:25;94204.75;;;8.90;84.98
45937;BME280;31649;46.510;6.498;2023-03-31T11:20:03;94194.63;;;8.96;84.56
45937;BME280;31649;46.510;6.498;2023-03-31T11:31:27;94148.06;;;9.24;83.03
45937;BME280;31649;46.510;6.498;2023-03-31T11:42:17;94113.28;;;9.56;82.19
45937;BME280;31649;46.510;6.498;2023-03-31T11:44:49;94117.38;;;9.65;81.78
45937;BME280;31649;46.510;6.498;2023-03-31T11:47:24;94119.53;;;9.61;82.13
45937;BME280;31649;46.510;6.498;2023-03-31T11:49:53;94118.34;;;9.64;81.67
45937;BME280;31649;46.510;6.498;2023-03-31T11:52:26;94116.56;;;9.64;81.59
45937;BME280;31649;46.510;6.498;2023-03-31T11:55:26;94114.69;;;9.58;81.45
45937;BME280;31649;46.510;6.498;2023-03-31T12:00:26;94096.59;;;9.65;81.69
45937;BME280;31649;46.510;6.498;2023-03-31T12:03:12;94089.97;;;9.62;81.49
45937;BME280;31649;46.510;6.498;2023-03-31T12:05:57;94087.44;;;9.69;81.15
45937;BME280;31649;46.510;6.498;2023-03-31T12:08:34;94071.31;;;9.74;81.30
45937;BME280;31649;46.510;6.498;2023-03-31T12:11:10;94072.34;;;9.80;81.12
45937;BME280;31649;46.510;6.498;2023-03-31T12:13:50;94065.59;;;9.85;80.41
45937;BME280;31649;46.510;6.498;2023-03-31T12:19:14;94071.59;;;9.86;80.38
45937;BME280;31649;46.510;6.498;2023-03-31T12:22:04;94064.38;;;9.81;80.04
45937;BME280;31649;46.510;6.498;2023-03-31T12:24:33;94063.41;;;9.82;80.02
45937;BME280;31649;46.510;6.498;2023-03-31T12:29:45;94049.19;;;9.78;79.67
45937;BME280;31649;46.510;6.498;2023-03-31T12:32:19;94072.16;;;9.81;79.13
45937;BME280;31649;46.510;6.498;2023-03-31T12:35:19;94054.00;;;9.81;78.92
45937;BME280;31649;46.510;6.498;2023-03-31T12:49:08;94046.19;;;9.81;78.99
45937;BME280;31649;46.510;6.498;2023-03-31T12:57:22;94029.63;;;9.82;78.43
45937;BME280;31649;46.510;6.498;2023-03-31T13:02:37;94029.63;;;9.82;78.26
45937;BME280;31649;46.510;6.498;2023-03-31T13:08:00;94020.00;;;9.76;78.13
45937;BME280;31649;46.510;6.498;2023-03-31T13:10:28;94017.75;;;9.73;78.15
45937;BME280;31649;46.510;6.498;2023-03-31T13:15:23;94006.97;;;9.69;78.12
45937;BME280;31649;46.510;6.498;2023-03-31T13:17:58;93988.41;;;9.72;77.82
45937;BME280;31649;46.510;6.498;2023-03-31T13:20:35;93976.41;;;9.71;78.04
45937;BME280;31649;46.510;6.498;2023-03-31T13:23:17;93966.03;;;9.71;78.12
45937;BME280;31649;46.510;6.498;2023-03-31T13:25:48;93976.28;;;9.80;78.11
45937;BME280;31649;46.510;6.498;2023-03-31T13:28:32;93974.50;;;9.87;77.68
45937;BME280;31649;46.510;6.498;2023-03-31T13:31:03;93964.13;;;9.87;77.77
45937;BME280;31649;46.510;6.498;2023-03-31T13:33:50;93941.72;;;9.79;78.18
45937;BME280;31649;46.510;6.498;2023-03-31T13:58:26;93892.16;;;9.74;77.92
